Time;durP1;ratioP1;P1;durP2;ratioP2;P2;SDS_P1;SDS_P2;PMS_P1;PMS_P2;Temp;Humidity;BMP_temperature;BMP_pressure;BME280_temperature;BME280_humidity;BME280_pressure;Samples;Min_cycle;Max_cycle;Signal;HPM_P1;HPM_P2
2023/01/07 00:01:58;;;;;;;8.88;6.15;;;11.40;68.30;;;6.51;100.00;96020.22;4970761;28;20029;-53
2023/01/07 00:04:24;;;;;;;10.07;6.97;;;11.40;68.40;;;6.49;100.00;96020.47;4969840;28;20385;-52
2023/01/07 00:06:53;;;;;;;10.07;6.88;;;11.40;68.40;;;6.48;100.00;96018.84;4987236;28;20030;-54
2023/01/07 00:09:19;;;;;;;10.05;6.28;;;11.40;68.40;;;6.46;100.00;96009.53;4981802;23;20141;-52
2023/01/07 00:11:45;;;;;;;10.27;7.18;;;11.30;68.40;;;6.46;100.00;96010.34;4970972;28;20037;-53
2023/01/07 00:14:13;;;;;;;9.40;7.18;;;11.40;68.50;;;6.46;100.00;96010.34;4966683;28;20027;-52
2023/01/07 00:16:41;;;;;;;12.00;7.78;;;11.30;68.60;;;6.45;100.00;96006.06;4965927;28;20524;-50
2023/01/07 00:19:13;;;;;;;15.25;6.63;;;11.40;68.60;;;6.46;100.00;96004.25;4959599;28;20495;-53
2023/01/07 00:21:41;;;;;;;11.35;7.07;;;11.40;68.60;;;6.47;100.00;96000.53;4952702;28;20030;-50
2023/01/07 00:24:10;;;;;;;9.10;6.88;;;11.30;68.50;;;6.46;100.00;95999.75;4959179;28;20034;-49
2023/01/07 00:26:39;;;;;;;9.18;6.60;;;11.30;68.60;;;6.44;100.00;96006.28;4969187;28;20030;-49
2023/01/07 00:29:08;;;;;;;9.57;6.53;;;11.30;68.60;;;6.41;100.00;96006.75;4952935;28;20538;-50
2023/01/07 00:31:40;;;;;;;8.30;6.63;;;11.30;68.60;;;6.39;100.00;95998.22;4966198;28;20093;-49
2023/01/07 00:34:08;;;;;;;9.38;5.32;;;11.20;68.60;;;6.38;100.00;95999.25;4965154;28;20034;-50
2023/01/07 00:36:45;;;;;;;10.13;7.30;;;11.20;68.60;;;6.37;100.00;95997.66;4966049;28;20031;-53
2023/01/07 00:39:19;;;;;;;14.00;7.88;;;11.20;68.80;;;6.35;100.00;95994.44;4963067;28;20504;-49
2023/01/07 00:44:33;;;;;;;8.40;6.43;;;11.10;68.90;;;6.35;100.00;95997.88;4968642;28;20471;-49
2023/01/07 00:46:59;;;;;;;11.95;7.07;;;11.10;68.90;;;6.33;100.00;95997.31;4953387;28;20033;-51
2023/01/07 00:49:26;;;;;;;9.43;6.43;;;11.10;69.00;;;6.32;100.00;95992.22;4968977;28;20029;-53
2023/01/07 00:51:55;;;;;;;7.97;6.13;;;11.10;69.00;;;6.30;100.00;95989.84;4968097;28;20484;-49
2023/01/07 00:54:22;;;;;;;14.02;7.78;;;11.10;69.10;;;6.28;100.00;95986.59;4966385;28;20030;-49
2023/01/07 00:56:48;;;;;;;10.30;7.25;;;11.10;69.10;;;6.25;100.00;95987.03;4964364;28;20125;-49
2023/01/07 00:59:14;;;;;;;9.95;6.97;;;11.00;69.00;;;6.27;100.00;95979.69;4970179;28;20137;-56
2023/01/07 01:01:46;;;;;;;9.73;7.38;;;11.10;69.20;;;6.24;100.00;95975.66;4969456;28;20463;-51
2023/01/07 01:04:15;;;;;;;9.95;6.75;;;11.10;69.20;;;6.22;100.00;95967.13;4969144;28;20443;-51
2023/01/07 01:06:41;;;;;;;13.68;7.70;;;11.10;69.20;;;6.22;100.00;95975.06;4969271;28;20056;-52
2023/01/07 01:09:07;;;;;;;11.50;7.88;;;11.10;69.20;;;6.21;100.00;95972.66;4963479;28;20505;-51
2023/01/07 01:11:33;;;;;;;12.00;8.30;;;11.10;69.10;;;6.20;100.00;95969.19;4952912;28;20081;-51
2023/01/07 01:14:05;;;;;;;12.38;7.82;;;11.10;69.20;;;6.19;100.00;95975.53;4966023;28;20037;-54
2023/01/07 01:16:31;;;;;;;9.68;6.82;;;11.00;69.20;;;6.20;100.00;95971.03;4966700;28;20517;-50
2023/01/07 01:18:57;;;;;;;10.32;7.30;;;11.00;69.20;;;6.20;100.00;95963.91;4969447;28;20065;-52
2023/01/07 01:21:23;;;;;;;13.15;7.50;;;11.00;69.20;;;6.18;100.00;95963.34;4965999;28;20054;-49
2023/01/07 01:23:52;;;;;;;12.57;6.93;;;11.00;69.30;;;6.17;100.00;95967.03;4961134;28;20023;-52
2023/01/07 01:26:18;;;;;;;10.32;7.68;;;11.00;69.40;;;6.17;100.00;95964.38;4970717;28;20042;-54
2023/01/07 01:28:45;;;;;;;12.10;8.57;;;10.90;69.40;;;6.14;100.00;95964.84;4972269;28;20026;-54
2023/01/07 01:31:12;;;;;;;10.38;7.57;;;10.90;69.40;;;6.13;100.00;95957.13;4972794;28;20026;-49
2023/01/07 01:33:41;;;;;;;11.25;7.50;;;10.90;69.40;;;6.11;100.00;95961.81;4955401;28;20432;-50
2023/01/07 01:36:11;;;;;;;14.63;8.18;;;10.90;69.50;;;6.11;100.00;95962.66;4969387;28;20030;-50
2023/01/07 01:38:41;;;;;;;11.90;8.10;;;10.90;69.50;;;6.10;100.00;95962.84;4964785;28;20542;-50
2023/01/07 01:41:07;;;;;;;10.98;7.53;;;10.90;69.50;;;6.09;100.00;95964.72;4973510;28;20030;-55
2023/01/07 01:43:38;;;;;;;10.00;7.28;;;10.90;69.50;;;6.08;100.00;95952.53;4969667;28;20052;-51
2023/01/07 01:46:33;;;;;;;11.95;7.78;;;10.90;69.50;;;6.09;100.00;95956.78;4967831;28;20037;-53
2023/01/07 01:49:32;;;;;;;14.35;8.57;;;10.90;69.50;;;6.07;100.00;95955.38;4970621;28;20481;-54
2023/01/07 01:52:13;;;;;;;11.75;7.57;;;10.90;69.50;;;6.05;100.00;95952.13;4958743;28;20043;-51
2023/01/07 01:54:56;;;;;;;12.45;8.02;;;10.90;69.50;;;6.02;100.00;95954.22;4969347;28;20022;-54
2023/01/07 01:57:31;;;;;;;12.15;7.40;;;10.80;69.50;;;6.01;100.00;95949.16;4966587;28;20018;-49
2023/01/07 01:59:59;;;;;;;13.43;8.00;;;10.90;69.50;;;5.98;100.00;95947.75;4970648;28;20038;-50
2023/01/07 02:02:47;;;;;;;12.68;8.25;;;10.80;69.50;;;5.99;100.00;95951.22;4954923;28;20374;-56
2023/01/07 02:05:17;;;;;;;11.32;7.68;;;10.80;69.50;;;5.95;100.00;95945.56;4972552;28;20030;-53
2023/01/07 02:07:46;;;;;;;12.27;9.10;;;10.80;69.50;;;5.95;100.00;95940.28;4971457;28;20026;-54
2023/01/07 02:10:21;;;;;;;12.85;8.27;;;10.80;69.60;;;5.97;100.00;95938.22;4967247;28;20043;-50
2023/01/07 02:13:30;;;;;;;13.27;8.35;;;10.80;69.60;;;5.96;100.00;95938.47;4963818;28;20037;-51
2023/01/07 02:16:14;;;;;;;9.73;7.00;;;10.80;69.60;;;5.95;100.00;95934.19;4971009;28;20080;-52
2023/01/07 02:19:34;;;;;;;12.80;8.35;;;10.70;69.70;;;5.92;100.00;95932.78;4961071;28;20034;-58
2023/01/07 02:22:46;;;;;;;13.65;8.60;;;10.70;69.60;;;5.91;100.00;95927.72;4966549;28;20396;-51
2023/01/07 02:25:33;;;;;;;11.18;7.63;;;10.70;70.50;;;5.89;100.00;95933.25;4963535;28;20489;-53
2023/01/07 02:28:45;;;;;;;11.90;9.10;;;10.70;69.80;;;5.85;100.00;95928.63;4969593;28;20500;-54
2023/01/07 02:31:51;;;;;;;10.45;7.53;;;10.70;69.70;;;5.81;100.00;95925.63;4968598;28;20034;-55
2023/01/07 02:34:41;;;;;;;14.20;8.40;;;10.60;69.70;;;5.82;100.00;95918.50;4968428;28;20026;-52
2023/01/07 02:38:12;;;;;;;11.65;8.15;;;10.60;69.80;;;5.82;100.00;95918.50;4972667;28;20551;-49
2023/01/07 02:41:19;;;;;;;10.20;7.05;;;10.60;69.70;;;5.82;100.00;95913.22;4969825;28;20125;-50
2023/01/07 02:44:49;;;;;;;10.40;7.57;;;10.60;69.70;;;5.82;100.00;95905.28;4972991;28;20034;-52
2023/01/07 02:47:33;;;;;;;14.45;8.63;;;10.60;69.70;;;5.82;100.00;95910.56;4969181;28;20026;-53
2023/01/07 02:50:03;;;;;;;12.13;8.73;;;10.60;69.80;;;5.83;100.00;95904.22;4955201;28;20030;-56
2023/01/07 02:52:35;;;;;;;12.35;9.07;;;10.60;69.80;;;5.82;100.00;95894.69;4953884;28;20026;-57
2023/01/07 02:55:34;;;;;;;10.43;7.72;;;10.60;69.80;;;5.83;100.00;95901.59;4972457;28;20092;-49
2023/01/07 02:59:20;;;;;;;13.73;8.40;;;10.70;69.70;;;5.84;100.00;95890.00;4970061;28;20033;-50
2023/01/07 03:02:36;;;;;;;10.00;7.53;;;10.60;69.60;;;5.83;100.00;95889.19;4890555;29;20040;-54
2023/01/07 03:06:00;;;;;;;11.38;7.90;;;10.60;69.70;;;5.83;100.00;95883.91;4908344;28;20067;-53
2023/01/07 03:09:14;;;;;;;12.13;8.20;;;10.60;69.60;;;5.82;100.00;95882.28;4952835;28;20596;-53
2023/01/07 03:11:51;;;;;;;13.38;7.97;;;10.60;69.70;;;5.83;100.00;95888.38;4936836;28;20050;-52
2023/01/07 03:14:32;;;;;;;10.93;7.82;;;10.60;69.80;;;5.84;100.00;95893.44;4970642;28;20085;-54
2023/01/07 03:17:38;;;;;;;12.70;8.55;;;10.60;69.80;;;5.83;100.00;95883.91;4954764;28;20029;-49
2023/01/07 03:20:06;;;;;;;11.73;7.20;;;10.60;69.70;;;5.82;100.00;95879.63;4966431;28;20023;-54
2023/01/07 03:22:52;;;;;;;12.50;8.50;;;10.60;69.60;;;5.83;100.00;95877.78;4952007;28;20029;-50
2023/01/07 03:25:27;;;;;;;11.50;7.93;;;10.60;69.60;;;5.81;100.00;95862.19;4970627;28;20042;-51
2023/01/07 03:27:58;;;;;;;12.63;8.07;;;10.60;69.60;;;5.76;100.00;95864.69;4968838;28;20117;-54
2023/01/07 03:30:26;;;;;;;10.90;8.57;;;10.60;69.60;;;5.78;100.00;95858.16;4967176;28;20085;-49
2023/01/07 03:34:11;;;;;;;11.98;8.05;;;10.60;69.60;;;5.80;100.00;95855.28;4953471;28;20634;-51
2023/01/07 03:36:55;;;;;;;10.52;7.88;;;10.60;69.60;;;5.83;100.00;95854.00;4949119;28;20046;-50
2023/01/07 03:39:32;;;;;;;10.82;7.75;;;10.60;69.70;;;5.83;100.00;95848.72;4964798;28;20026;-54
2023/01/07 03:44:48;;;;;;;10.93;7.90;;;10.60;69.60;;;5.78;100.00;95842.28;4967091;28;20033;-55
2023/01/07 03:47:14;;;;;;;13.77;7.50;;;10.60;69.70;;;5.80;100.00;95850.81;4966561;28;20485;-53
2023/01/07 03:49:43;;;;;;;11.60;7.88;;;10.60;69.70;;;5.81;100.00;95838.38;4970242;28;20703;-49
2023/01/07 03:52:27;;;;;;;13.02;8.15;;;10.60;69.80;;;5.82;100.00;95831.25;4969494;28;20026;-53
2023/01/07 03:54:53;;;;;;;9.98;7.18;;;10.60;69.70;;;5.83;100.00;95833.69;4970394;28;20029;-49
2023/01/07 03:57:28;;;;;;;11.02;7.90;;;10.60;69.70;;;5.79;100.00;95835.16;4970014;28;20022;-53
2023/01/07 03:59:56;;;;;;;11.15;7.57;;;10.60;69.70;;;5.74;100.00;95829.75;4971223;28;20032;-49
2023/01/07 04:02:22;;;;;;;10.55;7.55;;;10.60;69.60;;;5.76;100.00;95825.84;4941468;28;20025;-53
2023/01/07 04:04:53;;;;;;;12.55;8.07;;;10.60;69.60;;;5.78;100.00;95821.13;4966619;28;20030;-51
2023/01/07 04:07:22;;;;;;;12.18;7.93;;;10.60;69.70;;;5.77;100.00;95822.19;4968184;28;20030;-52
2023/01/07 04:09:49;;;;;;;13.70;8.23;;;10.60;69.70;;;5.78;100.00;95822.97;4969228;28;20049;-49
2023/01/07 04:12:18;;;;;;;11.02;7.90;;;10.60;69.70;;;5.76;100.00;95809.19;4969970;28;20033;-51
2023/01/07 04:14:44;;;;;;;11.07;8.07;;;10.60;69.70;;;5.79;100.00;95806.88;4967514;28;20485;-55
2023/01/07 04:17:22;;;;;;;11.80;7.85;;;10.60;69.80;;;5.78;100.00;95802.63;4959933;28;20101;-51
2023/01/07 04:19:54;;;;;;;13.02;6.85;;;10.60;69.70;;;5.79;100.00;95801.59;4958213;28;20079;-54
2023/01/07 04:22:23;;;;;;;11.20;7.77;;;10.60;69.70;;;5.79;100.00;95798.94;4968431;28;20022;-53
2023/01/07 04:24:58;;;;;;;11.77;8.05;;;10.60;69.70;;;5.74;100.00;95800.69;4952629;28;20285;-49
2023/01/07 04:27:24;;;;;;;11.32;8.05;;;10.60;69.70;;;5.73;100.00;95796.41;4968249;28;20445;-51
2023/01/07 04:29:52;;;;;;;9.32;6.57;;;10.60;69.60;;;5.73;100.00;95793.78;4970013;28;20117;-52
2023/01/07 04:32:18;;;;;;;10.73;7.53;;;10.60;69.60;;;5.74;100.00;95785.63;4968856;28;20072;-52
2023/01/07 04:34:44;;;;;;;9.23;7.10;;;10.60;69.60;;;5.74;100.00;95793.56;4968875;28;20030;-53
2023/01/07 04:37:15;;;;;;;11.20;7.43;;;10.60;69.60;;;5.74;100.00;95784.81;4969150;28;20060;-54
2023/01/07 04:39:41;;;;;;;10.18;7.40;;;10.60;69.60;;;5.73;100.00;95788.47;4968981;28;20503;-49
2023/01/07 04:42:07;;;;;;;12.68;7.53;;;10.60;69.60;;;5.60;98.03;95791.34;4969561;28;20030;-51
2023/01/07 04:44:33;;;;;;;8.00;6.38;;;10.60;69.40;;;5.61;97.11;95783.22;4968581;28;20022;-53
2023/01/07 04:46:59;;;;;;;9.05;5.85;;;10.60;69.30;;;5.69;98.02;95782.06;4968360;28;20057;-53
2023/01/07 04:49:28;;;;;;;7.68;5.50;;;10.60;69.30;;;5.70;97.46;95781.00;4969651;28;20084;-49
2023/01/07 04:51:56;;;;;;;8.43;6.32;;;10.60;69.10;;;5.72;98.27;95781.59;4953864;28;20062;-52
2023/01/07 04:54:22;;;;;;;9.65;6.22;;;10.60;69.00;;;5.73;98.02;95777.91;4940760;28;20393;-51
2023/01/07 04:56:55;;;;;;;10.23;6.97;;;10.60;69.00;;;5.71;98.28;95786.09;4969461;28;20022;-49
2023/01/07 04:59:29;;;;;;;9.18;7.05;;;10.60;68.90;;;5.73;98.64;95777.91;4973501;28;20033;-53
2023/01/07 05:01:55;;;;;;;9.35;6.50;;;10.60;68.80;;;5.72;99.58;95771.03;4972605;28;20049;-50
2023/01/07 05:04:21;;;;;;;10.60;7.00;;;10.60;68.90;;;5.75;99.66;95762.63;4971367;28;20028;-52
2023/01/07 05:06:47;;;;;;;10.88;7.03;;;10.60;68.80;;;5.75;99.68;95757.34;4973453;28;20049;-54
2023/01/07 05:09:22;;;;;;;10.15;7.18;;;10.60;68.80;;;5.75;99.33;95752.88;4960479;28;20129;-49
2023/01/07 05:11:50;;;;;;;10.57;6.40;;;10.60;68.80;;;5.74;99.10;95759.19;4973438;28;20038;-50
2023/01/07 05:14:19;;;;;;;8.75;6.30;;;10.60;68.80;;;5.71;99.14;95764.94;4973414;28;20026;-52
2023/01/07 05:16:47;;;;;;;10.90;6.65;;;10.60;68.70;;;5.74;99.23;95758.41;4972272;28;20030;-55
2023/01/07 05:19:16;;;;;;;9.32;6.85;;;10.60;68.70;;;5.75;99.13;95754.72;4972804;28;20022;-52
2023/01/07 05:21:50;;;;;;;8.40;6.35;;;10.60;68.80;;;5.71;99.07;95754.38;4972412;28;20121;-52
2023/01/07 05:24:21;;;;;;;8.40;5.82;;;10.60;68.70;;;5.64;95.23;95758.97;4955309;28;20037;-54
2023/01/07 05:26:53;;;;;;;9.52;6.38;;;10.60;68.60;;;5.67;97.09;95755.03;4971908;28;20477;-54
2023/01/07 05:29:21;;;;;;;8.00;6.22;;;10.60;68.60;;;5.68;97.93;95751.38;4939275;28;20041;-53
2023/01/07 05:31:49;;;;;;;9.40;6.00;;;10.60;68.60;;;5.67;99.01;95749.75;4972717;28;20033;-57
2023/01/07 05:34:15;;;;;;;9.15;6.88;;;10.50;68.60;;;5.66;99.19;95745.50;4971860;28;20036;-56
2023/01/07 05:36:41;;;;;;;7.50;5.75;;;10.50;68.60;;;5.67;98.83;95749.75;4955572;28;20030;-52
2023/01/07 05:39:07;;;;;;;9.57;6.00;;;10.50;68.50;;;5.69;98.98;95745.06;4935465;28;20046;-57
2023/01/07 05:41:42;;;;;;;9.45;6.63;;;10.50;68.60;;;5.66;99.08;95735.75;4972386;28;20049;-51
2023/01/07 05:44:13;;;;;;;8.52;6.40;;;10.50;68.60;;;5.67;99.06;95742.66;4971302;28;20022;-52
2023/01/07 05:46:39;;;;;;;9.63;6.60;;;10.50;68.70;;;5.66;99.46;95735.75;4954570;28;20392;-50
2023/01/07 05:49:05;;;;;;;8.88;6.40;;;10.50;68.70;;;5.65;99.55;95736.78;4970743;28;20057;-55
2023/01/07 05:51:31;;;;;;;7.88;6.30;;;10.50;68.60;;;5.62;99.50;95744.38;4970735;28;20532;-50
2023/01/07 05:54:07;;;;;;;10.07;6.25;;;10.50;68.60;;;5.59;99.25;95745.63;4972870;28;20061;-58
2023/01/07 05:56:34;;;;;;;8.23;6.00;;;10.50;68.50;;;5.60;98.96;95741.13;4968263;28;20392;-52
2023/01/07 05:59:00;;;;;;;8.68;6.22;;;10.50;68.50;;;5.58;98.95;95741.38;4970325;28;20546;-57
2023/01/07 06:01:26;;;;;;;8.13;5.90;;;10.50;68.40;;;5.54;98.91;95741.00;4953600;28;20030;-53
2023/01/07 06:03:52;;;;;;;7.35;5.60;;;10.40;68.40;;;5.52;99.21;95737.81;4961946;28;20033;-55
2023/01/07 06:06:21;;;;;;;8.20;6.05;;;10.40;68.40;;;5.48;99.10;95741.91;4954490;28;20040;-54
2023/01/07 06:08:54;;;;;;;6.72;5.40;;;10.40;68.60;;;5.45;98.50;95737.13;4957535;28;20609;-54
2023/01/07 06:11:24;;;;;;;7.32;5.65;;;10.40;68.40;;;5.45;98.38;95736.28;4972122;28;20121;-50
2023/01/07 06:13:50;;;;;;;7.45;5.32;;;10.40;68.40;;;5.39;98.22;95742.47;4936222;28;20034;-50
2023/01/07 06:16:16;;;;;;;8.00;5.38;;;10.30;68.30;;;5.38;98.52;95738.25;4967571;28;20038;-49
2023/01/07 06:18:42;;;;;;;6.95;5.22;;;10.30;68.30;;;5.34;98.32;95737.91;4970266;28;20048;-50
2023/01/07 06:21:15;;;;;;;8.07;5.47;;;10.30;68.30;;;5.31;98.14;95733.06;4968240;28;20042;-51
2023/01/07 06:23:42;;;;;;;8.20;5.57;;;10.30;68.30;;;5.28;97.83;95734.31;4965263;28;20049;-49
2023/01/07 06:26:11;;;;;;;7.22;5.47;;;10.20;68.20;;;5.28;97.76;95733.53;4955061;28;20025;-49
2023/01/07 06:28:42;;;;;;;8.70;5.80;;;10.20;68.20;;;5.26;97.77;95731.09;4970146;28;20064;-48
2023/01/07 06:31:13;;;;;;;6.47;4.78;;;10.20;68.20;;;5.24;98.23;95737.66;4971524;28;20030;-54
2023/01/07 06:33:41;;;;;;;9.93;5.43;;;10.20;68.20;;;5.22;98.41;95731.78;4944010;28;20870;-49
2023/01/07 06:36:16;;;;;;;9.18;5.90;;;10.20;68.30;;;5.18;98.86;95733.28;4965699;28;20149;-49
2023/01/07 06:38:45;;;;;;;7.47;5.35;;;10.10;68.20;;;5.17;98.55;95726.38;4968781;28;20022;-49
2023/01/07 06:41:11;;;;;;;6.05;4.70;;;10.10;68.30;;;5.16;98.57;95724.78;4967420;28;20030;-53
2023/01/07 06:43:43;;;;;;;7.28;5.38;;;10.10;68.20;;;5.12;99.04;95721.78;4951652;28;20087;-50
2023/01/07 06:46:12;;;;;;;9.83;5.60;;;10.10;68.20;;;5.10;99.05;95721.19;4963089;28;20029;-52
2023/01/07 06:48:37;;;;;;;9.88;5.78;;;10.10;68.30;;;5.09;99.34;95719.59;4967610;28;20018;-55
2023/01/07 06:51:06;;;;;;;8.52;6.05;;;10.00;68.20;;;5.08;99.35;95718.78;4967099;28;20920;-56
2023/01/07 06:53:34;;;;;;;7.75;5.85;;;10.10;68.30;;;5.08;99.28;95718.00;4942617;28;20064;-51
2023/01/07 06:56:02;;;;;;;8.15;5.75;;;10.00;68.20;;;5.07;99.14;95726.94;4965790;28;20026;-55
2023/01/07 06:58:29;;;;;;;8.73;6.13;;;10.00;68.20;;;5.07;99.04;95724.28;4963893;28;20081;-56
2023/01/07 07:01:04;;;;;;;8.77;6.25;;;10.10;68.30;;;5.06;99.14;95720.03;4967257;28;20557;-57
2023/01/07 07:03:30;;;;;;;7.30;5.45;;;10.00;68.20;;;5.03;99.33;95723.94;4962938;28;20474;-54
2023/01/07 07:06:03;;;;;;;7.68;5.30;;;10.00;68.20;;;5.03;99.72;95717.84;4970158;28;20034;-49
2023/01/07 07:08:31;;;;;;;8.43;6.25;;;10.00;68.20;;;5.04;99.54;95717.63;4949417;28;20042;-49
2023/01/07 07:10:57;;;;;;;8.75;5.90;;;10.00;68.20;;;5.02;99.30;95717.06;4965782;28;20493;-52
2023/01/07 07:13:24;;;;;;;6.40;4.55;;;10.00;68.20;;;4.99;99.77;95717.50;4967155;28;20477;-54
2023/01/07 07:15:50;;;;;;;7.95;5.95;;;10.00;68.10;;;5.03;99.59;95718.66;4931354;28;20034;-51
2023/01/07 07:18:17;;;;;;;10.27;5.40;;;10.00;68.10;;;5.02;99.58;95718.91;4966919;28;20412;-51
2023/01/07 07:20:46;;;;;;;7.60;5.50;;;10.10;68.20;;;5.00;99.42;95718.31;4951863;28;20092;-48
2023/01/07 07:23:12;;;;;;;6.70;5.25;;;10.10;68.20;;;5.03;99.92;95712.56;4967867;28;20030;-48
2023/01/07 07:25:40;;;;;;;8.02;5.93;;;10.00;68.20;;;5.03;99.90;95716.00;4953316;28;20588;-52
2023/01/07 07:28:06;;;;;;;7.93;5.65;;;10.00;68.20;;;5.04;99.92;95707.06;4935532;28;20042;-49
2023/01/07 07:30:34;;;;;;;7.07;5.30;;;10.00;68.20;;;5.03;99.40;95709.94;4951459;28;20049;-52
2023/01/07 07:33:04;;;;;;;8.48;5.80;;;10.00;68.10;;;5.02;99.40;95708.34;4965392;28;20647;-49
2023/01/07 07:35:34;;;;;;;9.95;5.75;;;10.00;68.10;;;5.01;100.00;95707.50;4964245;28;20026;-51
2023/01/07 07:38:02;;;;;;;7.22;5.70;;;10.00;68.20;;;4.99;100.00;95706.94;4967598;28;20108;-55
2023/01/07 07:40:28;;;;;;;7.40;5.65;;;10.00;68.20;;;5.00;100.00;95711.19;4964982;28;20497;-50
2023/01/07 07:42:56;;;;;;;8.70;5.22;;;10.00;68.30;;;5.02;99.87;95705.69;4965675;28;20075;-57
2023/01/07 07:45:25;;;;;;;6.35;4.68;;;10.00;68.20;;;5.03;99.74;95704.66;4965345;28;20061;-50
2023/01/07 07:48:00;;;;;;;7.20;5.38;;;10.00;68.20;;;5.02;99.24;95709.13;4954869;28;20825;-49
2023/01/07 07:50:28;;;;;;;7.25;4.70;;;10.00;68.10;;;5.05;99.31;95713.97;4967437;28;20448;-59
2023/01/07 07:52:54;;;;;;;6.03;4.40;;;10.00;68.10;;;5.09;99.27;95703.75;4963735;28;20686;-52
2023/01/07 07:55:23;;;;;;;7.57;5.18;;;10.10;68.10;;;5.09;99.41;95699.25;4945722;28;20034;-53
2023/01/07 07:57:52;;;;;;;7.63;5.65;;;10.00;68.10;;;5.12;99.59;95705.94;4964875;28;20491;-54
2023/01/07 08:00:20;;;;;;;7.80;5.53;;;10.10;68.10;;;5.17;99.46;95706.06;4969868;28;20022;-55
2023/01/07 08:02:49;;;;;;;6.57;4.63;;;10.10;68.10;;;5.19;98.76;95706.63;4958258;28;20085;-53
2023/01/07 08:05:15;;;;;;;5.70;4.78;;;10.10;68.10;;;5.21;98.53;95703.78;4936611;28;20058;-48
2023/01/07 08:07:42;;;;;;;6.43;4.97;;;10.20;68.10;;;5.22;98.35;95692.16;4968432;28;20037;-49
2023/01/07 08:10:11;;;;;;;6.97;4.95;;;10.20;68.10;;;5.25;98.79;95699.63;4960661;28;20047;-51
2023/01/07 08:12:40;;;;;;;9.18;5.07;;;10.20;68.00;;;5.27;98.95;95693.09;4954767;28;20122;-50
2023/01/07 08:15:08;;;;;;;6.75;4.95;;;10.20;68.00;;;5.29;98.68;95692.84;4948284;28;20027;-52
2023/01/07 08:17:37;;;;;;;6.60;4.95;;;10.20;68.00;;;5.31;98.63;95696.88;4948962;28;20140;-51
2023/01/07 08:20:06;;;;;;;6.90;4.93;;;10.30;68.00;;;5.29;97.51;95696.31;4949293;28;20089;-48
2023/01/07 08:23:07;;;;;;;10.32;5.68;;;10.30;67.90;;;5.34;97.78;95698.28;4961701;28;20033;-53
2023/01/07 08:25:37;;;;;;;8.43;5.13;;;10.40;67.80;;;5.38;97.71;95696.78;4962566;28;20019;-51
2023/01/07 08:28:06;;;;;;;7.18;5.03;;;10.40;67.90;;;5.38;97.51;95701.25;4947529;28;20046;-51
2023/01/07 08:30:38;;;;;;;7.78;5.50;;;10.40;67.80;;;5.41;97.25;95696.31;4916505;28;21200;-49
2023/01/07 08:33:10;;;;;;;8.38;5.68;;;10.40;67.80;;;5.41;96.75;95693.69;4891047;28;20037;-56
2023/01/07 08:35:36;;;;;;;9.50;5.07;;;10.50;67.70;;;5.44;96.28;95695.06;4950111;28;20034;-54
2023/01/07 08:38:10;;;;;;;7.05;5.28;;;10.50;67.60;;;5.49;96.13;95695.19;4965181;28;20026;-48
2023/01/07 08:40:39;;;;;;;5.88;4.93;;;10.60;67.60;;;5.51;96.10;95693.91;4962511;28;20398;-53
2023/01/07 08:43:11;;;;;;;6.93;4.88;;;10.60;67.50;;;5.52;95.66;95692.88;4962247;28;20122;-49
2023/01/07 08:45:49;;;;;;;6.68;4.90;;;10.60;67.30;;;5.55;95.44;95695.06;4945346;29;20058;-53
2023/01/07 08:48:15;;;;;;;7.75;5.32;;;10.70;67.30;;;5.60;95.99;95683.78;4949146;29;20019;-52
2023/01/07 08:50:51;;;;;;;6.13;4.75;;;10.70;67.30;;;5.64;95.45;95684.97;4961359;28;20035;-52
2023/01/07 08:53:37;;;;;;;6.80;5.25;;;10.80;67.20;;;5.69;94.75;95684.25;4948532;29;20022;-58
2023/01/07 08:56:12;;;;;;;6.18;4.40;;;10.80;67.00;;;5.72;94.31;95686.44;4961461;28;20121;-48
2023/01/07 08:58:40;;;;;;;7.10;4.50;;;10.90;67.00;;;5.75;94.20;95689.44;4945857;28;20026;-56
2023/01/07 09:01:12;;;;;;;9.25;5.80;;;10.90;67.20;;;5.82;93.99;95689.31;4948502;29;20115;-52
2023/01/07 09:03:41;;;;;;;8.82;5.43;;;10.90;66.60;;;5.86;94.06;95687.00;4944001;29;20130;-54
2023/01/07 09:06:14;;;;;;;6.85;5.35;;;11.00;66.70;;;5.92;93.31;95686.06;4948439;29;20054;-49
2023/01/07 09:08:40;;;;;;;9.40;6.43;;;11.10;66.60;;;5.91;92.28;95681.81;4945007;28;20030;-53
2023/01/07 09:11:11;;;;;;;8.93;6.47;;;11.10;66.50;;;5.98;92.41;95683.31;4956208;28;20042;-53
2023/01/07 09:13:40;;;;;;;9.10;6.35;;;11.10;66.30;;;6.05;91.54;95683.22;4968716;28;20488;-52
2023/01/07 09:16:09;;;;;;;8.52;6.88;;;11.20;66.20;;;6.11;90.44;95684.09;4966590;28;20034;-53
2023/01/07 09:18:38;;;;;;;9.07;6.55;;;11.30;66.00;;;6.15;89.98;95686.06;4968771;28;20037;-52
2023/01/07 09:21:04;;;;;;;8.45;5.93;;;11.30;65.80;;;6.22;90.27;95680.63;4966999;28;20646;-49
2023/01/07 09:23:30;;;;;;;8.23;6.07;;;11.40;65.80;;;6.26;89.63;95682.56;4966850;28;20042;-52
2023/01/07 09:25:56;;;;;;;7.38;5.70;;;11.50;65.60;;;6.33;90.09;95684.28;4951914;28;20049;-52
2023/01/07 09:28:21;;;;;;;8.10;5.60;;;11.60;65.50;;;6.39;90.03;95684.16;4967535;28;20029;-54
2023/01/07 09:30:58;;;;;;;7.18;5.35;;;11.70;65.40;;;6.45;89.49;95685.84;4968898;28;20045;-49
2023/01/07 09:33:25;;;;;;;7.45;5.82;;;11.70;65.20;;;6.51;89.34;95688.59;4968589;28;20431;-55
2023/01/07 09:35:57;;;;;;;8.73;6.10;;;11.80;65.10;;;6.57;88.33;95693.75;4968659;28;20108;-56
2023/01/07 09:38:25;;;;;;;9.65;6.03;;;11.90;65.00;;;6.62;87.92;95685.13;4971952;28;20026;-51
2023/01/07 09:40:57;;;;;;;6.63;5.57;;;11.90;64.70;;;6.66;87.20;95691.53;4970089;28;20053;-58
2023/01/07 09:43:45;;;;;;;7.10;5.90;;;12.00;64.60;;;6.67;85.80;95678.03;4971804;28;20018;-53
2023/01/07 09:46:12;;;;;;;7.78;5.93;;;12.10;64.40;;;6.68;84.79;95686.81;4964508;28;20392;-55
2023/01/07 09:48:48;;;;;;;8.23;5.72;;;12.10;64.00;;;6.78;85.33;95681.69;4970327;28;20450;-51
2023/01/07 09:51:36;;;;;;;8.43;5.90;;;12.20;63.80;;;6.80;83.88;95686.75;4965081;28;20092;-59
2023/01/07 09:54:36;;;;;;;7.30;5.43;;;12.20;63.50;;;6.88;84.30;95681.88;4970844;28;20041;-54
2023/01/07 09:57:17;;;;;;;7.35;5.90;;;12.30;63.40;;;6.97;84.04;95682.28;4971007;28;20030;-54
2023/01/07 09:59:44;;;;;;;8.20;5.85;;;12.40;63.40;;;6.95;82.96;95684.38;4971006;28;20022;-52
2023/01/07 10:03:19;;;;;;;8.48;6.50;;;12.40;63.10;;;6.90;82.00;95679.00;4965535;28;20106;-52
2023/01/07 10:06:10;;;;;;;7.25;5.55;;;12.50;62.70;;;7.04;82.84;95674.97;4968742;28;20392;-50
2023/01/07 10:09:09;;;;;;;8.15;6.13;;;12.50;62.50;;;7.19;82.68;95674.44;4968569;28;20026;-53
2023/01/07 10:12:44;;;;;;;8.48;6.07;;;12.60;62.60;;;7.21;80.27;95676.84;4962852;28;20077;-52
2023/01/07 10:15:50;;;;;;;8.50;6.15;;;12.70;62.20;;;7.23;81.03;95670.25;4925315;28;20065;-48
2023/01/07 10:18:44;;;;;;;10.27;6.03;;;12.80;61.80;;;7.31;80.30;95674.38;4970368;28;20073;-57
2023/01/07 10:21:22;;;;;;;7.57;5.85;;;12.90;61.60;;;7.25;80.76;95662.88;4966801;28;20062;-54
2023/01/07 10:24:31;;;;;;;9.30;6.38;;;12.90;61.30;;;7.29;79.65;95658.69;4934055;29;20050;-51
2023/01/07 10:27:12;;;;;;;9.75;6.95;;;12.90;61.20;;;7.21;79.90;95656.47;4942895;28;20034;-50
2023/01/07 10:29:55;;;;;;;9.18;6.72;;;12.80;61.00;;;7.29;79.95;95658.69;4969229;28;20467;-58
2023/01/07 10:32:30;;;;;;;;;;;12.90;60.70;;;7.53;80.98;95648.72;4971658;28;20045;-49
2023/01/07 10:35:00;;;;;;;9.05;5.60;;;13.30;61.20;;;7.81;79.01;95647.78;4954301;28;20032;-58
2023/01/07 10:37:38;;;;;;;7.70;5.80;;;13.70;60.70;;;7.82;77.01;95640.63;4953217;28;20030;-54
2023/01/07 10:40:55;;;;;;;7.63;6.13;;;13.90;60.00;;;7.82;76.81;95636.13;4951440;28;20088;-49
2023/01/07 10:44:06;;;;;;;7.13;5.80;;;13.90;59.70;;;7.91;77.09;95638.34;4969598;28;20034;-51
2023/01/07 10:47:20;;;;;;;7.82;6.07;;;13.90;59.30;;;7.92;77.53;95635.44;4949059;28;20026;-53
2023/01/07 10:50:38;;;;;;;8.18;6.63;;;13.80;59.20;;;7.85;75.36;95622.38;4968306;28;20544;-49
2023/01/07 10:57:18;;;;;;;7.90;6.20;;;14.10;59.00;;;8.49;74.37;95619.16;4951643;28;20042;-48
2023/01/07 10:59:55;;;;;;;9.45;7.10;;;14.70;58.50;;;8.84;72.93;95614.41;4970704;28;20030;-56
2023/01/07 11:02:27;;;;;;;8.40;6.75;;;15.10;58.30;;;8.99;73.13;95610.06;4957298;28;20036;-51
2023/01/07 11:04:58;;;;;;;9.25;5.82;;;15.50;58.00;;;9.27;70.55;95603.63;4964427;28;20100;-48